createdAt,value
2023-03-29T00:01:48.509Z,67.75
2023-03-29T00:03:52.314Z,67.62
2023-03-29T00:06:06.073Z,67.23
2023-03-29T00:08:09.552Z,67.50
2023-03-29T00:10:13.284Z,68.25
2023-03-29T00:12:16.895Z,68.71
2023-03-29T00:14:19.317Z,68.97
2023-03-29T00:16:22.250Z,69.29
2023-03-29T00:18:24.941Z,68.98
2023-03-29T00:20:29.531Z,68.18
2023-03-29T00:22:32.623Z,68.19
2023-03-29T00:24:35.181Z,67.76
2023-03-29T00:26:38.113Z,67.79
2023-03-29T00:28:40.797Z,67.70
2023-03-29T00:30:44.004Z,68.38
2023-03-29T00:32:47.526Z,68.24
2023-03-29T00:34:51.743Z,68.51
2023-03-29T00:36:58.356Z,68.82
2023-03-29T00:39:01.041Z,68.72
2023-03-29T00:41:07.013Z,69.09
2023-03-29T00:43:12.581Z,69.11
2023-03-29T00:45:30.678Z,69.16
2023-03-29T00:47:51.325Z,69.03
2023-03-29T00:49:58.113Z,68.90
2023-03-29T00:52:01.493Z,68.89
2023-03-29T00:54:08.335Z,69.45
2023-03-29T00:56:30.302Z,69.15
2023-03-29T00:58:41.071Z,68.73
2023-03-29T01:00:53.182Z,69.19
2023-03-29T01:03:00.441Z,68.68
2023-03-29T01:05:08.922Z,69.45
2023-03-29T01:07:21.791Z,69.46
2023-03-29T01:09:27.679Z,69.18
2023-03-29T01:11:46.991Z,68.28
2023-03-29T01:13:49.355Z,69.33
2023-03-29T01:15:54.719Z,69.38
2023-03-29T01:17:58.619Z,69.33
2023-03-29T01:20:18.311Z,69.63
2023-03-29T01:22:34.424Z,69.47
2023-03-29T01:24:57.810Z,69.98
2023-03-29T01:27:09.648Z,69.85
2023-03-29T01:29:34.895Z,69.70
2023-03-29T01:31:46.418Z,69.80
2023-03-29T01:33:53.814Z,69.45
2023-03-29T01:36:17.757Z,69.64
2023-03-29T01:38:48.950Z,69.65
2023-03-29T01:40:52.142Z,70.40
2023-03-29T01:43:13.290Z,69.71
2023-03-29T01:45:33.093Z,69.22
2023-03-29T01:48:00.814Z,69.73
2023-03-29T01:50:27.814Z,68.91
2023-03-29T01:52:47.133Z,69.50
2023-03-29T01:55:05.500Z,69.43
2023-03-29T01:57:10.706Z,69.16
2023-03-29T01:59:19.299Z,69.38
2023-03-29T02:01:30.347Z,68.90
2023-03-29T02:03:34.971Z,69.08
2023-03-29T02:05:40.033Z,68.63
2023-03-29T02:07:45.780Z,68.77
2023-03-29T02:09:49.964Z,68.84
2023-03-29T02:11:54.038Z,69.47
2023-03-29T02:13:57.655Z,69.74
2023-03-29T02:16:03.688Z,68.96
2023-03-29T02:18:09.130Z,69.03
2023-03-29T02:20:17.792Z,69.21
2023-03-29T02:22:45.244Z,68.67
2023-03-29T02:24:50.805Z,68.88
2023-03-29T02:27:02.154Z,69.10
2023-03-29T02:29:05.314Z,69.32
2023-03-29T02:31:25.473Z,69.28
2023-03-29T02:33:39.873Z,69.95
2023-03-29T02:35:59.504Z,69.44
2023-03-29T02:38:11.725Z,69.78
2023-03-29T02:40:17.649Z,69.90
2023-03-29T02:42:22.551Z,69.47
2023-03-29T02:44:29.353Z,69.28
2023-03-29T02:46:32.249Z,69.48
2023-03-29T02:48:37.640Z,69.71
2023-03-29T02:50:43.458Z,69.43
2023-03-29T02:52:56.353Z,70.23
2023-03-29T02:55:01.126Z,69.87
2023-03-29T02:57:08.942Z,69.62
2023-03-29T02:59:15.460Z,69.90
2023-03-29T03:01:20.610Z,69.90
2023-03-29T03:03:25.974Z,70.75
2023-03-29T03:05:30.023Z,70.15
2023-03-29T03:07:34.042Z,70.16
2023-03-29T03:09:36.754Z,70.42
2023-03-29T03:11:40.278Z,69.86
2023-03-29T03:13:43.216Z,70.33
2023-03-29T03:15:49.522Z,70.72
2023-03-29T03:17:52.971Z,70.11
2023-03-29T03:19:55.614Z,69.84
2023-03-29T03:21:58.070Z,69.80
2023-03-29T03:24:00.628Z,69.93
2023-03-29T03:26:04.077Z,69.99
2023-03-29T03:28:08.578Z,70.25
2023-03-29T03:30:11.639Z,70.41
2023-03-29T03:32:35.346Z,70.37
2023-03-29T03:35:05.855Z,69.87
2023-03-29T03:37:08.529Z,70.14
2023-03-29T03:39:12.726Z,70.84
2023-03-29T03:41:15.268Z,71.80
2023-03-29T03:43:18.218Z,70.71
2023-03-29T03:45:23.428Z,70.98
2023-03-29T03:47:39.904Z,71.35
2023-03-29T03:50:21.159Z,70.68
2023-03-29T03:52:24.294Z,70.79
2023-03-29T03:54:27.849Z,70.83
2023-03-29T03:56:49.158Z,70.88
2023-03-29T03:58:58.767Z,70.67
2023-03-29T04:01:04.005Z,71.05
2023-03-29T04:03:17.530Z,70.81
2023-03-29T04:05:21.357Z,70.99
2023-03-29T04:07:25.696Z,71.34
2023-03-29T04:09:58.834Z,71.11
2023-03-29T04:12:21.848Z,71.45
2023-03-29T04:14:26.392Z,71.32
2023-03-29T04:16:38.380Z,71.45
2023-03-29T04:19:03.449Z,71.38
2023-03-29T04:21:06.926Z,71.47
2023-03-29T04:23:10.648Z,71.80
2023-03-29T04:25:14.897Z,71.53
2023-03-29T04:27:23.422Z,71.16
2023-03-29T04:29:26.337Z,71.33
2023-03-29T04:31:38.259Z,71.71
2023-03-29T04:34:07.653Z,71.36
2023-03-29T04:36:10.911Z,71.36
2023-03-29T04:38:13.536Z,71.24
2023-03-29T04:40:19.924Z,71.37
2023-03-29T04:42:39.593Z,71.82
2023-03-29T04:44:44.082Z,71.77
2023-03-29T04:46:49.990Z,71.96
2023-03-29T04:49:31.584Z,71.61
2023-03-29T04:51:34.743Z,71.47
2023-03-29T04:53:38.342Z,71.37
2023-03-29T04:55:42.429Z,71.44
2023-03-29T04:57:49.699Z,71.37
2023-03-29T04:59:59.804Z,71.04
2023-03-29T05:02:22.334Z,70.76
2023-03-29T05:04:26.889Z,71.14
2023-03-29T05:06:42.746Z,71.04
2023-03-29T05:08:45.774Z,70.72
2023-03-29T05:11:07.014Z,70.64
2023-03-29T05:13:10.685Z,70.34
2023-03-29T05:15:15.084Z,71.01
2023-03-29T05:17:17.985Z,70.66
2023-03-29T05:19:25.982Z,70.21
2023-03-29T05:21:31.901Z,70.19
2023-03-29T05:23:37.873Z,69.88
2023-03-29T05:25:44.268Z,70.10
2023-03-29T05:27:47.586Z,70.42
2023-03-29T05:29:50.452Z,70.26
2023-03-29T05:32:16.927Z,69.39
2023-03-29T05:34:21.056Z,69.52
2023-03-29T05:36:29.201Z,69.23
2023-03-29T05:38:34.503Z,68.60
2023-03-29T05:40:38.171Z,67.73
2023-03-29T05:43:01.999Z,67.84
2023-03-29T05:45:07.052Z,68.78
2023-03-29T05:47:09.850Z,67.60
2023-03-29T05:49:12.955Z,67.87
2023-03-29T05:51:33.938Z,68.25
2023-03-29T05:53:37.129Z,67.14
2023-03-29T05:55:40.172Z,66.53
2023-03-29T05:57:43.297Z,66.55
2023-03-29T05:59:46.071Z,66.27
2023-03-29T06:01:50.172Z,66.21
2023-03-29T06:03:57.680Z,66.37
2023-03-29T06:06:07.580Z,66.29
2023-03-29T06:08:11.747Z,65.24
2023-03-29T06:10:25.543Z,65.50
2023-03-29T06:12:36.078Z,65.11
2023-03-29T06:14:39.869Z,64.65
2023-03-29T06:16:53.686Z,63.43
2023-03-29T06:18:57.033Z,63.63
2023-03-29T06:21:02.604Z,62.58
2023-03-29T06:23:05.582Z,62.70
2023-03-29T06:25:11.509Z,62.16
2023-03-29T06:27:15.994Z,63.20
2023-03-29T06:29:19.586Z,62.53
2023-03-29T06:31:23.251Z,61.21
2023-03-29T06:33:27.943Z,60.63
2023-03-29T06:35:38.580Z,60.16
2023-03-29T06:37:50.595Z,59.26
2023-03-29T06:40:02.909Z,59.43
2023-03-29T06:42:21.340Z,59.81
2023-03-29T06:44:43.489Z,58.51
2023-03-29T06:46:55.057Z,58.15
2023-03-29T06:48:57.612Z,57.84
2023-03-29T06:51:08.767Z,57.98
2023-03-29T06:53:11.805Z,57.39
2023-03-29T06:55:16.243Z,57.56
2023-03-29T06:57:19.001Z,58.36
2023-03-29T06:59:22.179Z,58.74
2023-03-29T07:01:30.794Z,57.79
2023-03-29T07:03:39.819Z,57.36
2023-03-29T07:05:42.896Z,54.73
2023-03-29T07:08:00.893Z,54.58
2023-03-29T07:10:13.141Z,54.50
2023-03-29T07:12:42.585Z,54.77
2023-03-29T07:14:46.607Z,53.78
2023-03-29T07:16:52.394Z,54.00
2023-03-29T07:19:04.117Z,54.17
2023-03-29T07:21:30.712Z,51.73
2023-03-29T07:23:33.548Z,51.14
2023-03-29T07:25:38.165Z,51.37
2023-03-29T07:27:42.755Z,50.45
2023-03-29T07:29:45.833Z,50.16
2023-03-29T07:31:49.205Z,50.87
2023-03-29T07:34:18.156Z,47.95
2023-03-29T07:36:20.736Z,48.98
2023-03-29T07:38:23.874Z,50.39
2023-03-29T07:40:44.763Z,49.72
2023-03-29T07:43:15.763Z,51.04
2023-03-29T07:45:26.240Z,48.68
2023-03-29T07:47:45.190Z,49.25
2023-03-29T07:49:48.543Z,49.20
2023-03-29T07:51:51.209Z,49.37
2023-03-29T07:53:54.482Z,47.38
2023-03-29T07:56:16.715Z,48.41
2023-03-29T07:58:30.082Z,47.87
2023-03-29T08:00:34.560Z,47.75
2023-03-29T08:03:17.277Z,46.93
2023-03-29T08:05:37.926Z,48.48
2023-03-29T08:07:47.730Z,48.17
2023-03-29T08:09:50.420Z,47.17
2023-03-29T08:11:57.942Z,46.95
2023-03-29T08:14:07.908Z,47.16
2023-03-29T08:16:30.253Z,46.46
2023-03-29T08:18:44.107Z,47.76
2023-03-29T08:20:47.194Z,47.99
2023-03-29T08:22:49.705Z,47.02
2023-03-29T08:24:52.488Z,46.94
2023-03-29T08:26:57.327Z,47.09
2023-03-29T08:29:01.038Z,44.59
2023-03-29T08:31:04.316Z,46.01
2023-03-29T08:33:08.058Z,46.27
2023-03-29T08:35:11.304Z,44.14
2023-03-29T08:37:21.418Z,44.38
2023-03-29T08:39:26.925Z,44.54
2023-03-29T08:42:07.752Z,44.57
2023-03-29T08:44:22.097Z,43.43
2023-03-29T08:47:02.131Z,42.53
2023-03-29T08:49:14.082Z,41.88
2023-03-29T08:51:42.819Z,41.38
2023-03-29T08:53:59.466Z,41.20
2023-03-29T08:56:14.285Z,41.51
2023-03-29T08:58:47.654Z,42.47
2023-03-29T09:01:02.731Z,39.24
2023-03-29T09:03:19.829Z,39.58
2023-03-29T09:05:38.406Z,37.03
2023-03-29T09:07:57.435Z,37.46
2023-03-29T09:10:01.190Z,38.18
2023-03-29T09:12:31.107Z,38.31
2023-03-29T09:14:46.324Z,34.93
2023-03-29T09:17:18.645Z,34.33
2023-03-29T09:19:24.216Z,34.96
2023-03-29T09:21:47.272Z,34.85
2023-03-29T09:23:58.345Z,36.00
2023-03-29T09:26:48.483Z,38.27
2023-03-29T09:29:32.148Z,35.66
2023-03-29T09:31:45.745Z,36.57
2023-03-29T09:34:00.581Z,34.54
2023-03-29T09:36:25.935Z,36.06
2023-03-29T09:38:31.682Z,36.49
2023-03-29T09:40:41.932Z,38.79
2023-03-29T09:42:53.268Z,37.52
2023-03-29T09:45:08.834Z,36.87
2023-03-29T09:47:26.505Z,38.47
2023-03-29T09:49:36.687Z,38.93
2023-03-29T09:51:42.372Z,38.42
2023-03-29T09:53:47.231Z,38.10
2023-03-29T09:56:16.312Z,38.55
2023-03-29T09:58:31.973Z,37.94
2023-03-29T10:00:35.270Z,37.99
2023-03-29T10:02:38.555Z,38.61
2023-03-29T10:04:43.682Z,37.45
2023-03-29T10:06:50.615Z,38.33
2023-03-29T10:08:57.171Z,39.11
2023-03-29T10:11:30.599Z,37.65
2023-03-29T10:13:35.705Z,37.27
2023-03-29T10:15:38.403Z,38.14
2023-03-29T10:17:43.291Z,36.69
2023-03-29T10:19:51.833Z,36.88
2023-03-29T10:21:56.172Z,36.25
2023-03-29T10:24:02.436Z,35.76
2023-03-29T10:26:12.168Z,34.47
2023-03-29T10:28:18.117Z,35.36
2023-03-29T10:30:24.274Z,34.29
2023-03-29T10:32:38.417Z,34.23
2023-03-29T10:34:41.904Z,35.45
2023-03-29T10:37:02.504Z,33.04
2023-03-29T10:39:06.576Z,34.44
2023-03-29T10:41:15.043Z,35.36
2023-03-29T10:43:18.055Z,35.24
2023-03-29T10:45:35.086Z,35.59
2023-03-29T10:47:38.556Z,34.73
2023-03-29T10:49:45.013Z,35.03
2023-03-29T10:51:51.618Z,35.72
2023-03-29T10:53:54.694Z,34.63
2023-03-29T10:56:19.409Z,33.79
2023-03-29T10:58:54.957Z,32.68
2023-03-29T11:00:58.526Z,33.51
2023-03-29T11:03:21.981Z,33.26
2023-03-29T11:05:39.563Z,34.30
2023-03-29T11:08:17.323Z,34.09
2023-03-29T11:10:32.570Z,32.34
2023-03-29T11:13:04.428Z,33.81
2023-03-29T11:15:37.852Z,33.99
2023-03-29T11:17:52.644Z,32.75
2023-03-29T11:20:00.927Z,33.47
2023-03-29T11:22:14.361Z,33.64
2023-03-29T11:24:41.825Z,35.18
2023-03-29T11:27:13.506Z,34.79
2023-03-29T11:29:52.243Z,34.82
2023-03-29T11:32:17.067Z,33.68
2023-03-29T11:34:49.523Z,35.13
2023-03-29T11:37:06.182Z,36.30
2023-03-29T11:39:20.247Z,35.31
2023-03-29T11:41:33.447Z,35.20
2023-03-29T11:43:43.076Z,34.78
2023-03-29T11:45:56.589Z,34.43
2023-03-29T11:48:03.341Z,33.94
2023-03-29T11:50:27.995Z,34.27
2023-03-29T11:52:30.454Z,32.18
2023-03-29T11:54:46.219Z,33.95
2023-03-29T11:57:14.834Z,32.75
2023-03-29T11:59:57.501Z,32.91
2023-03-29T12:02:19.084Z,34.11
2023-03-29T12:04:33.172Z,33.86
2023-03-29T12:06:46.458Z,33.16
2023-03-29T12:09:01.230Z,33.78
2023-03-29T12:11:36.826Z,34.23
2023-03-29T12:13:53.010Z,34.52
2023-03-29T12:16:07.557Z,34.14
2023-03-29T12:18:47.565Z,34.63
2023-03-29T12:21:14.308Z,33.67
2023-03-29T12:23:18.869Z,33.71
2023-03-29T12:25:31.994Z,33.82
2023-03-29T12:27:53.039Z,33.82
2023-03-29T12:30:17.352Z,32.87
2023-03-29T12:32:32.928Z,33.18
2023-03-29T12:35:20.165Z,32.60
2023-03-29T12:38:05.858Z,32.25
2023-03-29T12:40:35.821Z,32.71
2023-03-29T12:43:27.634Z,34.18
2023-03-29T12:45:56.411Z,34.44
2023-03-29T12:48:01.812Z,34.97
2023-03-29T12:50:04.954Z,33.55
2023-03-29T12:52:31.843Z,33.50
2023-03-29T12:54:34.476Z,34.25
2023-03-29T12:56:42.266Z,34.73
2023-03-29T12:59:09.768Z,35.10
2023-03-29T13:01:27.476Z,33.69
2023-03-29T13:03:47.886Z,34.77
2023-03-29T13:06:01.377Z,34.41
2023-03-29T13:08:42.839Z,32.86
2023-03-29T13:10:54.515Z,32.51
2023-03-29T13:12:58.023Z,32.90
2023-03-29T13:15:03.677Z,34.58
2023-03-29T13:17:18.415Z,33.44
2023-03-29T13:19:52.317Z,32.99
2023-03-29T13:22:26.412Z,32.33
2023-03-29T13:25:06.672Z,32.97
2023-03-29T13:27:43.855Z,32.40
2023-03-29T13:30:09.525Z,32.72
2023-03-29T13:32:30.507Z,32.99
2023-03-29T13:34:39.384Z,33.32
2023-03-29T13:37:06.551Z,33.46
2023-03-29T13:39:19.993Z,34.03
2023-03-29T13:41:31.959Z,32.76
2023-03-29T13:43:43.010Z,33.44
2023-03-29T13:45:58.683Z,32.36
2023-03-29T13:48:25.696Z,32.63
2023-03-29T13:50:57.109Z,31.59
2023-03-29T13:53:14.092Z,32.59
2023-03-29T13:55:23.036Z,30.82
2023-03-29T13:57:35.271Z,32.13
2023-03-29T13:59:48.514Z,32.07
2023-03-29T14:01:58.374Z,32.47
2023-03-29T14:04:03.383Z,31.88
2023-03-29T14:06:10.312Z,31.53
2023-03-29T14:08:26.226Z,32.67
2023-03-29T14:10:45.591Z,31.64
2023-03-29T14:12:49.422Z,32.58
2023-03-29T14:14:59.282Z,32.27
2023-03-29T14:17:03.190Z,32.84
2023-03-29T14:19:24.042Z,32.38
2023-03-29T14:21:27.389Z,31.83
2023-03-29T14:23:32.674Z,31.53
2023-03-29T14:25:40.027Z,33.43
2023-03-29T14:27:43.070Z,33.20
2023-03-29T14:29:47.630Z,32.38
2023-03-29T14:31:50.747Z,31.15
2023-03-29T14:33:54.952Z,31.74
2023-03-29T14:36:02.221Z,31.32
2023-03-29T14:38:05.529Z,31.61
2023-03-29T14:40:19.426Z,31.93
2023-03-29T14:42:27.250Z,31.90
2023-03-29T14:44:35.135Z,32.03
2023-03-29T14:46:38.877Z,32.07
2023-03-29T14:48:42.930Z,32.78
2023-03-29T14:50:47.205Z,32.99
2023-03-29T14:52:52.606Z,31.16
2023-03-29T14:54:59.904Z,31.36
2023-03-29T14:57:08.929Z,32.70
2023-03-29T14:59:39.058Z,32.22
2023-03-29T15:01:45.019Z,31.64
2023-03-29T15:03:55.403Z,30.52
2023-03-29T15:06:01.964Z,30.64
2023-03-29T15:08:07.653Z,31.23
2023-03-29T15:10:19.688Z,30.99
2023-03-29T15:12:23.033Z,31.63
2023-03-29T15:14:30.081Z,31.71
2023-03-29T15:16:34.463Z,31.70
2023-03-29T15:18:42.784Z,32.42
2023-03-29T15:20:45.959Z,32.73
2023-03-29T15:23:17.490Z,33.23
2023-03-29T15:25:21.655Z,33.04
2023-03-29T15:27:24.308Z,32.67
2023-03-29T15:29:43.966Z,33.14
2023-03-29T15:31:56.606Z,33.58
2023-03-29T15:34:09.483Z,33.28
2023-03-29T15:36:14.810Z,34.08
2023-03-29T15:38:19.785Z,33.68
2023-03-29T15:40:28.555Z,35.02
2023-03-29T15:42:31.755Z,35.04
2023-03-29T15:44:34.629Z,36.71
2023-03-29T15:46:38.183Z,36.42
2023-03-29T15:48:41.221Z,36.83
2023-03-29T15:50:45.486Z,36.87
2023-03-29T15:52:48.018Z,37.71
2023-03-29T15:54:50.638Z,37.62
2023-03-29T15:57:02.161Z,37.74
2023-03-29T15:59:05.606Z,36.88
2023-03-29T16:01:38.004Z,38.89
2023-03-29T16:03:40.692Z,37.68
2023-03-29T16:05:44.990Z,38.46
2023-03-29T16:07:47.374Z,38.84
2023-03-29T16:09:50.055Z,38.97
2023-03-29T16:11:52.641Z,38.75
2023-03-29T16:13:56.316Z,39.93
2023-03-29T16:15:58.919Z,38.38
2023-03-29T16:18:01.486Z,39.31
2023-03-29T16:20:06.040Z,39.15
2023-03-29T16:22:09.021Z,40.06
2023-03-29T16:24:18.051Z,40.01
2023-03-29T16:26:22.497Z,39.48
2023-03-29T16:28:26.444Z,40.42
2023-03-29T16:30:31.667Z,39.56
2023-03-29T16:32:34.395Z,39.44
2023-03-29T16:34:38.600Z,38.85
2023-03-29T16:36:41.956Z,39.01
2023-03-29T16:38:44.667Z,38.34
2023-03-29T16:40:47.839Z,38.41
2023-03-29T16:42:51.739Z,37.68
2023-03-29T16:44:55.557Z,38.23
2023-03-29T16:46:59.134Z,38.49
2023-03-29T16:49:02.698Z,39.64
2023-03-29T16:51:06.371Z,38.13
2023-03-29T16:53:10.086Z,37.95
2023-03-29T16:55:15.585Z,37.72
2023-03-29T16:57:18.834Z,38.78
2023-03-29T16:59:21.347Z,38.88
2023-03-29T17:01:23.752Z,37.51
2023-03-29T17:03:26.560Z,37.24
2023-03-29T17:05:29.257Z,38.00
2023-03-29T17:07:34.040Z,38.54
2023-03-29T17:09:37.122Z,38.95
2023-03-29T17:11:39.933Z,37.88
2023-03-29T17:13:42.525Z,39.43
2023-03-29T17:15:45.312Z,38.97
2023-03-29T17:17:48.406Z,39.19
2023-03-29T17:19:52.332Z,39.38
2023-03-29T17:21:55.207Z,38.52
2023-03-29T17:23:58.050Z,39.86
2023-03-29T17:26:01.473Z,39.98
2023-03-29T17:28:05.041Z,39.85
2023-03-29T17:30:08.318Z,40.02
2023-03-29T17:32:11.105Z,40.34
2023-03-29T17:34:19.559Z,40.81
2023-03-29T17:36:24.468Z,40.91
2023-03-29T17:38:29.889Z,41.91
2023-03-29T17:40:32.678Z,41.94
2023-03-29T17:42:35.080Z,41.63
2023-03-29T17:44:37.867Z,41.60
2023-03-29T17:46:41.672Z,42.02
2023-03-29T17:48:44.635Z,42.15
2023-03-29T17:50:47.863Z,42.54
2023-03-29T17:52:50.881Z,42.78
2023-03-29T17:54:53.590Z,42.71
2023-03-29T17:56:56.536Z,43.30
2023-03-29T17:59:00.227Z,43.82
2023-03-29T18:01:13.825Z,43.60
2023-03-29T18:03:16.418Z,44.51
2023-03-29T18:05:19.101Z,45.12
2023-03-29T18:07:21.632Z,45.42
2023-03-29T18:09:26.677Z,44.82
2023-03-29T18:11:31.090Z,44.68
2023-03-29T18:13:33.950Z,45.18
2023-03-29T18:15:36.920Z,45.69
2023-03-29T18:17:40.063Z,45.69
2023-03-29T18:19:43.146Z,46.03
2023-03-29T18:21:45.793Z,46.12
2023-03-29T18:23:52.909Z,46.53
2023-03-29T18:26:08.315Z,46.71
2023-03-29T18:28:11.192Z,47.03
2023-03-29T18:30:17.077Z,46.49
2023-03-29T18:32:19.899Z,47.31
2023-03-29T18:34:22.922Z,47.79
2023-03-29T18:36:26.426Z,47.40
2023-03-29T18:38:29.934Z,47.00
2023-03-29T18:40:32.784Z,47.21
2023-03-29T18:42:35.798Z,47.41
2023-03-29T18:44:39.052Z,47.77
2023-03-29T18:46:41.567Z,48.30
2023-03-29T18:48:44.276Z,48.32
2023-03-29T18:50:47.562Z,48.69
2023-03-29T18:52:51.306Z,48.35
2023-03-29T18:54:53.895Z,48.70
2023-03-29T18:56:59.056Z,48.76
2023-03-29T18:59:06.649Z,48.52
2023-03-29T19:01:11.230Z,48.47
2023-03-29T19:03:14.452Z,48.00
2023-03-29T19:05:17.621Z,48.81
2023-03-29T19:07:21.260Z,49.06
2023-03-29T19:09:24.496Z,48.50
2023-03-29T19:11:29.062Z,48.54
2023-03-29T19:13:32.601Z,48.70
2023-03-29T19:15:35.428Z,48.21
2023-03-29T19:17:38.846Z,48.62
2023-03-29T19:19:41.772Z,47.96
2023-03-29T19:21:47.558Z,48.60
2023-03-29T19:23:53.520Z,48.67
2023-03-29T19:25:59.491Z,48.33
2023-03-29T19:28:04.042Z,48.18
2023-03-29T19:30:08.074Z,48.59
2023-03-29T19:32:10.748Z,47.82
2023-03-29T19:34:13.403Z,48.28
2023-03-29T19:36:17.618Z,48.56
2023-03-29T19:38:21.876Z,48.09
2023-03-29T19:40:24.868Z,48.77
2023-03-29T19:42:27.856Z,48.42
2023-03-29T19:44:31.108Z,48.43
2023-03-29T19:46:33.849Z,48.55
2023-03-29T19:48:38.236Z,48.42
2023-03-29T19:50:42.739Z,48.32
2023-03-29T19:52:45.200Z,48.75
2023-03-29T19:54:48.653Z,48.47
2023-03-29T19:56:52.977Z,48.32
2023-03-29T19:58:56.421Z,48.95
2023-03-29T20:00:59.460Z,48.69
2023-03-29T20:03:03.164Z,48.27
2023-03-29T20:05:07.750Z,49.23
2023-03-29T20:07:10.928Z,48.88
2023-03-29T20:09:16.941Z,48.34
2023-03-29T20:11:24.177Z,49.12
2023-03-29T20:13:37.696Z,48.87
2023-03-29T20:15:46.353Z,49.34
2023-03-29T20:17:49.524Z,49.10
2023-03-29T20:19:54.391Z,49.23
2023-03-29T20:21:59.260Z,49.07
2023-03-29T20:24:02.019Z,49.23
2023-03-29T20:26:04.520Z,49.55
2023-03-29T20:28:07.280Z,49.79
2023-03-29T20:30:11.548Z,49.63
2023-03-29T20:32:14.688Z,49.96
2023-03-29T20:34:18.910Z,50.34
2023-03-29T20:36:23.223Z,50.07
2023-03-29T20:38:26.329Z,50.36
2023-03-29T20:40:30.484Z,50.41
2023-03-29T20:42:34.765Z,50.44
2023-03-29T20:44:40.236Z,50.18
2023-03-29T20:46:55.001Z,50.35
2023-03-29T20:48:58.164Z,50.82
2023-03-29T20:51:03.496Z,50.31
2023-03-29T20:53:07.724Z,50.37
2023-03-29T20:55:12.971Z,50.21
2023-03-29T20:57:18.582Z,50.44
2023-03-29T20:59:23.225Z,50.08
2023-03-29T21:01:28.778Z,50.70
2023-03-29T21:03:31.951Z,50.37
2023-03-29T21:05:34.961Z,50.98
2023-03-29T21:07:38.161Z,51.06
2023-03-29T21:09:42.491Z,50.07
2023-03-29T21:11:45.533Z,50.88
2023-03-29T21:13:48.488Z,50.97
2023-03-29T21:15:51.607Z,50.47
2023-03-29T21:17:54.410Z,51.22
2023-03-29T21:19:57.270Z,50.89
2023-03-29T21:21:59.906Z,50.84
2023-03-29T21:24:04.470Z,51.16
2023-03-29T21:26:09.724Z,51.02
2023-03-29T21:28:13.764Z,51.17
2023-03-29T21:30:16.748Z,51.01
2023-03-29T21:32:19.719Z,50.75
2023-03-29T21:34:23.355Z,51.19
2023-03-29T21:36:26.384Z,51.18
2023-03-29T21:38:29.065Z,51.19
2023-03-29T21:40:31.904Z,51.40
2023-03-29T21:42:34.734Z,51.28
2023-03-29T21:44:37.075Z,51.03
2023-03-29T21:46:39.522Z,52.38
2023-03-29T21:48:42.357Z,51.96
2023-03-29T21:50:48.253Z,51.99
2023-03-29T21:52:51.338Z,51.98
2023-03-29T21:54:53.886Z,52.69
2023-03-29T21:56:56.532Z,52.55
2023-03-29T21:58:59.080Z,52.34
2023-03-29T22:01:04.356Z,52.85
2023-03-29T22:03:08.109Z,53.14
2023-03-29T22:05:11.159Z,53.34
2023-03-29T22:07:14.138Z,53.44
2023-03-29T22:09:16.478Z,53.29
2023-03-29T22:11:20.278Z,53.67
2023-03-29T22:13:28.362Z,53.88
2023-03-29T22:15:36.163Z,53.65
2023-03-29T22:17:38.639Z,53.44
2023-03-29T22:19:42.212Z,53.58
2023-03-29T22:21:45.086Z,54.28
2023-03-29T22:23:50.134Z,54.24
2023-03-29T22:25:52.786Z,54.20
2023-03-29T22:27:55.414Z,53.99
2023-03-29T22:29:59.197Z,54.06
2023-03-29T22:32:02.509Z,53.99
2023-03-29T22:34:05.182Z,53.86
2023-03-29T22:36:25.105Z,53.94
2023-03-29T22:38:28.798Z,54.15
2023-03-29T22:40:33.609Z,54.50
2023-03-29T22:42:35.914Z,54.25
2023-03-29T22:44:38.315Z,54.34
2023-03-29T22:46:40.842Z,54.38
2023-03-29T22:48:43.411Z,54.67
2023-03-29T22:50:49.203Z,54.64
2023-03-29T22:52:52.798Z,54.49
2023-03-29T22:54:55.335Z,54.44
2023-03-29T22:56:58.184Z,54.89
2023-03-29T22:59:01.092Z,55.67
2023-03-29T23:01:04.419Z,55.17
2023-03-29T23:03:07.378Z,54.61
2023-03-29T23:05:09.955Z,55.18
2023-03-29T23:07:12.641Z,55.39
2023-03-29T23:09:16.492Z,55.57
2023-03-29T23:11:19.008Z,55.33
2023-03-29T23:13:26.160Z,55.29
2023-03-29T23:15:29.660Z,55.37
2023-03-29T23:17:36.183Z,55.40
2023-03-29T23:19:39.113Z,55.74
2023-03-29T23:21:41.398Z,55.62
2023-03-29T23:23:43.698Z,55.37
2023-03-29T23:25:47.876Z,55.45
2023-03-29T23:27:51.405Z,55.56
2023-03-29T23:29:55.792Z,55.65
2023-03-29T23:31:59.875Z,56.05
2023-03-29T23:34:03.467Z,55.78
2023-03-29T23:36:14.829Z,55.28
2023-03-29T23:38:17.513Z,55.44
2023-03-29T23:40:20.773Z,55.09
2023-03-29T23:42:23.268Z,54.63
2023-03-29T23:44:25.867Z,55.39
2023-03-29T23:46:28.579Z,55.22
2023-03-29T23:48:33.030Z,54.68
2023-03-29T23:50:35.515Z,55.46
2023-03-29T23:52:38.077Z,55.70
2023-03-29T23:54:40.717Z,55.30
2023-03-29T23:56:44.259Z,54.69
2023-03-29T23:58:47.523Z,55.40
